createdAt,value
2023-05-05T00:12:02.168Z,89.7
2023-05-05T00:32:02.124Z,90.4
2023-05-05T00:52:02.078Z,90.8
2023-05-05T02:52:01.863Z,91.3
2023-05-05T03:12:01.818Z,85
2023-05-05T03:32:01.806Z,77.1
2023-05-05T03:52:01.759Z,75.4
2023-05-05T04:12:01.717Z,75.7
2023-05-05T04:32:01.675Z,77.7
2023-05-05T04:52:01.634Z,81.8
2023-05-05T05:12:01.607Z,81.7
2023-05-05T05:32:01.613Z,81.3
2023-05-05T05:52:01.494Z,80.1
2023-05-05T06:12:01.489Z,78.2
2023-05-05T06:32:01.441Z,78
2023-05-05T06:52:01.393Z,72.1
2023-05-05T07:12:01.383Z,71.5
2023-05-05T07:32:01.354Z,69.4
2023-05-05T07:52:01.270Z,68.2
2023-05-05T08:12:01.229Z,63.7
2023-05-05T08:32:01.221Z,63
2023-05-05T08:52:01.134Z,61.2
2023-05-05T09:32:01.061Z,56.2
2023-05-05T10:12:00.976Z,53.7
2023-05-05T10:52:00.905Z,52.7
2023-05-05T11:32:00.815Z,52
2023-05-05T11:52:00.794Z,52.8
2023-05-05T12:12:00.729Z,54
2023-05-05T12:32:00.838Z,57.9
2023-05-05T12:52:00.637Z,71.3
2023-05-05T13:12:00.637Z,95.8
2023-05-05T13:32:00.576Z,96.8
2023-05-05T13:52:00.511Z,96.1
2023-05-05T14:12:00.482Z,84.2
2023-05-05T14:32:00.495Z,79.5
2023-05-05T15:32:00.391Z,92.6
2023-05-05T15:52:00.281Z,94.8
2023-05-05T16:12:00.246Z,95.4
2023-05-05T16:32:00.277Z,94.4
2023-05-05T16:52:00.187Z,93.2
2023-05-05T17:12:00.135Z,92.1
2023-05-05T17:32:00.133Z,91.7
2023-05-05T17:52:00.083Z,91.5
2023-05-05T18:12:00.032Z,93.2
2023-05-05T18:32:00.020Z,94.2
2023-05-05T18:51:59.976Z,95.1
2023-05-05T19:31:59.896Z,96.5
2023-05-05T19:51:59.817Z,97
2023-05-05T20:11:59.790Z,97.3
2023-05-05T21:31:59.661Z,98.2
2023-05-05T21:51:59.616Z,98.3
2023-05-05T22:51:59.498Z,98.9
2023-05-05T23:11:59.481Z,99.1
2023-05-05T23:51:59.407Z,99.3
